Time;durP1;ratioP1;P1;durP2;ratioP2;P2;SDS_P1;SDS_P2;PMS_P1;PMS_P2;Temp;Humidity;BMP_temperature;BMP_pressure;BME280_temperature;BME280_humidity;BME280_pressure;Samples;Min_cycle;Max_cycle;Signal;HPM_P1;HPM_P2
2022/10/06 00:01:20;;;;;;;7.88;3.35;;;;;;;11.52;89.77;99720.25;5115586;27;20087;-47
2022/10/06 00:04:05;;;;;;;7.43;3.53;;;;;;;11.49;90.13;99725.69;5110473;27;20123;-47
2022/10/06 00:06:49;;;;;;;7.20;3.65;;;;;;;11.50;90.04;99728.22;5115808;27;20131;-45
2022/10/06 00:09:34;;;;;;;4.72;3.35;;;;;;;11.40;90.93;99724.41;5107318;27;20035;-52
2022/10/06 00:12:19;;;;;;;8.55;3.35;;;;;;;11.33;91.74;99729.16;5122747;27;20122;-47
2022/10/06 00:15:03;;;;;;;5.55;3.30;;;;;;;11.30;91.94;99727.56;5108885;27;20039;-47
2022/10/06 00:17:48;;;;;;;7.18;3.10;;;;;;;11.30;92.35;99735.44;5096983;28;20039;-53
2022/10/06 00:20:32;;;;;;;6.63;3.78;;;;;;;11.12;93.48;99725.97;5112924;27;20453;-47
2022/10/06 00:23:17;;;;;;;9.20;3.92;;;;;;;11.07;93.82;99727.06;5109064;27;20561;-48
2022/10/06 00:26:02;;;;;;;6.32;3.75;;;;;;;11.05;94.20;99730.72;5098976;27;20040;-50
2022/10/06 00:28:47;;;;;;;6.07;3.58;;;;;;;11.06;94.87;99737.66;5107881;28;20502;-47
2022/10/06 00:31:33;;;;;;;5.47;3.17;;;;;;;11.21;93.90;99733.34;5115739;27;20065;-48
2022/10/06 00:34:17;;;;;;;6.30;3.35;;;;;;;11.07;93.87;99734.94;5107125;28;20040;-47
2022/10/06 00:37:02;;;;;;;5.72;3.70;;;;;;;10.99;94.57;99737.13;5120752;27;20475;-47
2022/10/06 00:39:47;;;;;;;6.93;3.40;;;;;;;11.03;94.23;99737.81;5109791;27;20097;-47
2022/10/06 00:42:32;;;;;;;6.72;3.60;;;;;;;10.96;94.62;99743.41;5113101;27;20066;-47
2022/10/06 00:45:19;;;;;;;5.15;3.33;;;;;;;10.95;94.82;99744.31;5105381;27;20136;-49
2022/10/06 00:48:11;;;;;;;7.63;4.07;;;;;;;10.88;95.40;99740.34;5107516;27;20044;-49
2022/10/06 00:50:57;;;;;;;5.82;3.38;;;;;;;10.91;95.20;99736.72;5111050;27;20413;-49
2022/10/06 00:53:42;;;;;;;8.43;3.90;;;;;;;10.87;95.50;99735.19;5116801;27;20471;-47
2022/10/06 00:56:26;;;;;;;8.05;4.35;;;;;;;10.84;95.90;99730.94;5110482;27;20057;-47
2022/10/06 00:59:14;;;;;;;6.65;4.00;;;;;;;10.81;96.18;99729.34;5096757;28;20389;-48
2022/10/06 01:02:26;;;;;;;6.13;3.85;;;;;;;10.73;96.69;99726.31;5110443;28;20059;-51
2022/10/06 01:05:25;;;;;;;12.40;4.32;;;;;;;10.78;96.47;99726.03;5113497;28;20050;-49
2022/10/06 01:08:09;;;;;;;6.68;4.28;;;;;;;10.70;97.00;99727.31;5127637;28;20538;-48
2022/10/06 01:10:54;;;;;;;4.25;3.40;;;;;;;10.71;97.34;99736.00;5094677;28;20043;-49
2022/10/06 01:13:42;;;;;;;6.65;3.85;;;;;;;10.65;97.45;99739.81;5107799;28;20106;-47
2022/10/06 01:16:27;;;;;;;5.28;3.58;;;;;;;10.70;97.46;99748.28;5100283;28;20050;-49
2022/10/06 01:19:54;;;;;;;6.07;3.55;;;;;;;10.72;97.15;99750.81;5114445;28;20141;-51
2022/10/06 01:22:43;;;;;;;5.25;3.58;;;;;;;10.77;96.96;99750.56;5036143;28;20045;-47
2022/10/06 01:25:28;;;;;;;6.30;3.58;;;;;;;10.86;96.36;99759.69;5064203;28;20191;-48
2022/10/06 01:28:13;;;;;;;5.88;3.15;;;;;;;10.96;95.58;99758.28;5059579;28;20171;-46
2022/10/06 01:31:00;;;;;;;9.38;4.10;;;;;;;10.98;95.20;99759.06;5057776;28;20082;-47
2022/10/06 01:33:50;;;;;;;5.68;3.95;;;;;;;10.94;95.40;99770.63;5057834;28;20515;-50
2022/10/06 01:36:35;;;;;;;7.25;3.70;;;;;;;11.05;94.34;99759.56;5064583;28;21142;-48
2022/10/06 01:39:19;;;;;;;9.27;4.13;;;;;;;10.85;95.19;99751.00;5055115;28;20484;-46
2022/10/06 01:42:04;;;;;;;6.32;4.03;;;;;;;10.70;96.31;99744.81;5060720;28;20511;-47
2022/10/06 01:44:49;;;;;;;6.95;4.07;;;;;;;10.58;97.57;99743.69;5057396;28;20049;-47
2022/10/06 01:47:34;;;;;;;7.60;3.97;;;;;;;10.58;97.55;99739.28;5053320;28;20041;-45
2022/10/06 01:50:18;;;;;;;9.77;4.10;;;;;;;10.53;98.13;99729.97;5034021;28;20064;-49
2022/10/06 01:53:03;;;;;;;6.80;3.60;;;;;;;10.43;98.70;99734.84;5067465;28;20048;-49
2022/10/06 01:55:47;;;;;;;6.20;4.22;;;;;;;10.49;98.55;99731.06;5057763;28;20491;-48
2022/10/06 01:58:36;;;;;;;6.18;4.35;;;;;;;10.46;98.83;99729.44;5060456;28;20179;-49
2022/10/06 02:01:21;;;;;;;7.07;4.00;;;;;;;10.52;98.38;99723.06;5108778;28;20042;-47
2022/10/06 02:04:06;;;;;;;6.13;4.07;;;;;;;10.42;98.91;99720.03;5115968;28;20039;-45
2022/10/06 02:06:50;;;;;;;7.38;3.80;;;;;;;10.42;99.29;99722.66;5119770;28;20040;-48
2022/10/06 02:09:35;;;;;;;8.05;4.20;;;;;;;10.60;98.04;99731.34;5111006;27;20062;-48
2022/10/06 02:12:21;;;;;;;6.00;3.95;;;;;;;10.51;98.43;99726.63;5116391;27;20051;-47
2022/10/06 02:15:09;;;;;;;6.70;4.45;;;;;;;10.50;98.65;99736.22;5110351;27;20032;-50
2022/10/06 02:17:54;;;;;;;8.65;4.07;;;;;;;10.46;98.77;99738.16;5114619;27;20119;-50
2022/10/06 02:20:44;;;;;;;7.75;3.97;;;;;;;10.44;99.02;99732.16;5107670;27;20543;-52
2022/10/06 02:23:31;;;;;;;5.60;4.20;;;;;;;10.41;99.14;99734.06;5105585;27;20130;-47
2022/10/06 02:26:17;;;;;;;7.40;4.25;;;;;;;10.44;99.23;99736.53;5105415;27;20434;-51
2022/10/06 02:29:01;;;;;;;6.82;3.70;;;;;;;10.27;100.00;99734.78;5103461;28;20099;-52
2022/10/06 02:31:46;;;;;;;8.48;3.88;;;;;;;10.33;99.86;99740.53;5131396;27;20058;-52
2022/10/06 02:34:31;;;;;;;7.60;4.13;;;;;;;10.27;100.00;99735.63;5122346;27;20546;-51
2022/10/06 02:37:16;;;;;;;7.18;4.53;;;;;;;10.33;100.00;99734.47;5115399;27;20061;-47
2022/10/06 02:40:00;;;;;;;7.75;4.00;;;;;;;10.32;100.00;99730.16;5102231;27;20028;-55
2022/10/06 02:42:47;;;;;;;7.43;4.20;;;;;;;10.22;100.00;99729.78;5097935;28;20089;-51
2022/10/06 02:45:37;;;;;;;7.47;4.20;;;;;;;10.22;100.00;99724.53;5094456;27;20067;-49
2022/10/06 02:48:23;;;;;;;8.50;4.43;;;;;;;10.17;100.00;99730.03;5117542;27;20047;-53
2022/10/06 02:51:16;;;;;;;7.38;4.47;;;;;;;10.20;100.00;99732.47;5104687;27;20047;-51
2022/10/06 02:54:02;;;;;;;6.07;4.22;;;;;;;10.23;100.00;99729.69;5118480;27;20432;-50
2022/10/06 02:56:48;;;;;;;12.32;5.18;;;;;;;10.18;100.00;99733.50;5091619;27;20043;-48
2022/10/06 02:59:35;;;;;;;6.75;4.28;;;;;;;10.17;100.00;99737.88;5124030;27;20122;-51
2022/10/06 03:02:22;;;;;;;7.07;4.93;;;;;;;10.15;100.00;99731.03;5102787;27;20395;-48
2022/10/06 03:05:06;;;;;;;8.93;4.70;;;;;;;10.20;100.00;99736.88;5096960;27;20032;-51
2022/10/06 03:07:52;;;;;;;9.40;4.47;;;;;;;10.21;100.00;99739.44;5113093;27;20035;-49
2022/10/06 03:10:36;;;;;;;10.35;4.40;;;;;;;10.18;100.00;99733.50;5123462;27;20075;-49
2022/10/06 03:13:21;;;;;;;9.13;4.55;;;;;;;10.27;100.00;99740.88;5116743;27;20448;-51
2022/10/06 03:16:18;;;;;;;6.47;4.03;;;;;;;10.29;100.00;99754.75;5103999;27;20458;-50
2022/10/06 03:19:04;;;;;;;8.32;4.43;;;;;;;10.17;100.00;99750.97;5126371;27;20036;-49
2022/10/06 03:21:49;;;;;;;7.07;4.40;;;;;;;10.36;100.00;99760.50;5118441;27;20447;-50
2022/10/06 03:24:34;;;;;;;7.18;4.00;;;;;;;10.45;99.94;99762.66;5104995;27;20387;-49
2022/10/06 03:27:19;;;;;;;8.15;4.30;;;;;;;10.50;98.98;99765.06;5112389;27;20389;-46
2022/10/06 03:30:05;;;;;;;7.60;4.10;;;;;;;10.66;98.09;99767.72;5122617;27;20039;-53
2022/10/06 03:32:52;;;;;;;7.60;4.32;;;;;;;10.50;98.39;99770.28;5106493;27;20161;-53
2022/10/06 03:35:37;;;;;;;7.70;3.83;;;;;;;10.45;98.82;99762.66;5109020;28;20461;-51
2022/10/06 03:38:21;;;;;;;8.13;4.25;;;;;;;10.31;99.65;99754.66;5112406;27;20441;-48
2022/10/06 03:41:12;;;;;;;7.20;4.20;;;;;;;10.20;100.00;99753.44;5111600;27;20172;-53
2022/10/06 03:43:59;;;;;;;7.95;4.47;;;;;;;10.15;100.00;99759.84;5114507;27;20471;-47
2022/10/06 03:46:45;;;;;;;6.30;4.13;;;;;;;10.28;100.00;99760.06;5119639;27;20206;-47
2022/10/06 03:49:30;;;;;;;5.97;3.90;;;;;;;10.34;100.00;99762.34;5118566;27;20048;-47
2022/10/06 03:52:14;;;;;;;7.70;4.28;;;;;;;10.30;100.00;99768.66;5082323;28;20048;-47
2022/10/06 03:54:59;;;;;;;9.45;4.78;;;;;;;10.39;99.36;99765.59;5098093;28;20039;-52
2022/10/06 03:57:44;;;;;;;8.70;4.80;;;;;;;10.51;99.12;99771.97;5117952;27;20043;-51
2022/10/06 04:00:29;;;;;;;8.70;4.63;;;;;;;10.62;98.22;99771.44;5098681;27;20050;-51
2022/10/06 04:03:18;;;;;;;5.45;3.92;;;;;;;10.74;97.45;99783.03;5090896;28;20051;-49
2022/10/06 04:06:05;;;;;;;7.88;4.78;;;;;;;10.63;97.76;99780.97;5110396;27;20071;-50
2022/10/06 04:08:51;;;;;;;5.90;4.13;;;;;;;10.75;97.15;99782.13;5100865;27;20498;-50
2022/10/06 04:11:38;;;;;;;7.38;4.20;;;;;;;10.70;97.23;99782.34;5101081;27;20114;-50
2022/10/06 04:14:24;;;;;;;6.95;4.10;;;;;;;10.67;97.52;99779.91;5106928;27;20106;-49
2022/10/06 04:17:09;;;;;;;6.25;4.53;;;;;;;10.65;97.28;99783.50;5107485;27;20410;-49
2022/10/06 04:19:58;;;;;;;7.95;4.53;;;;;;;10.53;98.16;99785.00;5111686;27;20044;-53
2022/10/06 04:22:43;;;;;;;6.35;4.07;;;;;;;10.53;98.54;99790.22;5100122;27;20039;-50
2022/10/06 04:25:27;;;;;;;9.38;4.75;;;;;;;10.37;99.55;99792.78;5116060;27;20044;-52
2022/10/06 04:28:12;;;;;;;6.95;4.50;;;;;;;10.47;99.10;99796.66;5075840;28;20060;-51
2022/10/06 04:30:59;;;;;;;7.88;4.93;;;;;;;10.43;99.28;99787.25;5114261;27;20039;-50
2022/10/06 04:33:45;;;;;;;8.00;4.82;;;;;;;10.39;99.11;99785.69;5097626;28;20391;-50
2022/10/06 04:36:38;;;;;;;6.75;4.57;;;;;;;10.43;99.56;99782.81;5111779;27;20532;-48
2022/10/06 04:39:23;;;;;;;;;;;;;;;10.39;99.95;99798.78;5101819;27;20133;-49
2022/10/06 04:42:07;;;;;;;9.65;4.90;;;;;;;10.49;99.59;99800.06;5098871;27;19972;-50
2022/10/06 04:44:52;;;;;;;8.70;3.97;;;;;;;11.75;100.00;99802.09;5109969;27;20036;-51
2022/10/06 04:47:36;;;;;;;7.50;4.55;;;;;;;11.17;99.44;99808.72;5090073;27;20471;-50
2022/10/06 04:50:21;;;;;;;7.85;4.18;;;;;;;10.79;98.69;99808.97;5099562;27;20066;-50
2022/10/06 04:53:24;;;;;;;7.57;4.47;;;;;;;10.70;98.57;99815.56;5089771;27;20051;-52
2022/10/06 04:56:12;;;;;;;10.10;4.60;;;;;;;10.47;99.17;99808.00;5087099;28;20392;-49
2022/10/06 04:58:57;;;;;;;7.45;4.50;;;;;;;10.58;99.42;99809.19;5119224;27;20448;-51
2022/10/06 05:01:43;;;;;;;7.40;5.00;;;;;;;10.59;99.06;99809.09;5097821;27;20151;-49
2022/10/06 05:04:30;;;;;;;8.93;3.88;;;;;;;11.45;100.00;99812.44;5095976;28;20047;-56
2022/10/06 05:07:14;;;;;;;12.73;4.10;;;;;;;14.67;100.00;99807.72;5081000;28;20046;-44
2022/10/06 05:10:00;;;;;;;7.20;4.45;;;;;;;13.50;92.62;99815.34;5090576;28;20142;-50
2022/10/06 05:12:45;;;;;;;7.82;4.57;;;;;;;12.34;89.47;99822.34;5100893;28;20039;-52
2022/10/06 05:15:30;;;;;;;10.93;4.60;;;;;;;11.86;92.17;99825.09;5085533;28;20048;-52
2022/10/06 05:18:15;;;;;;;8.40;4.80;;;;;;;11.42;93.76;99822.25;5092575;28;20071;-51
2022/10/06 05:21:03;;;;;;;8.48;4.53;;;;;;;11.36;94.10;99823.44;5093843;28;20069;-47
2022/10/06 05:23:48;;;;;;;10.35;5.07;;;;;;;11.40;94.96;99826.75;5097958;28;20064;-50
2022/10/06 05:26:34;;;;;;;8.77;5.00;;;;;;;11.31;95.12;99826.31;5091852;28;20028;-51
2022/10/06 05:29:21;;;;;;;7.28;4.78;;;;;;;11.61;93.09;99829.94;5113086;28;20084;-50
2022/10/06 05:32:05;;;;;;;8.88;5.00;;;;;;;11.19;94.33;99827.00;5110773;28;20133;-51
2022/10/06 05:34:54;;;;;;;7.40;4.65;;;;;;;10.89;96.31;99828.56;5102183;28;20040;-52
2022/10/06 05:37:39;;;;;;;8.40;4.70;;;;;;;11.08;96.04;99840.69;5113895;28;20064;-50
2022/10/06 05:40:25;;;;;;;8.15;4.70;;;;;;;11.12;95.45;99839.59;5094526;28;20036;-47
2022/10/06 05:43:09;;;;;;;6.75;4.30;;;;;;;10.98;96.62;99842.97;5099961;28;20043;-49
2022/10/06 05:45:56;;;;;;;5.78;4.03;;;;;;;11.09;96.40;99845.00;5102112;27;20366;-51
2022/10/06 05:48:41;;;;;;;5.65;4.28;;;;;;;11.04;96.16;99847.00;5107268;27;20044;-51
2022/10/06 05:51:28;;;;;;;9.45;4.60;;;;;;;10.75;98.25;99858.13;5116459;27;20039;-51
2022/10/06 05:54:13;;;;;;;8.10;4.53;;;;;;;11.05;97.17;99857.41;5094306;28;20044;-51
2022/10/06 05:56:57;;;;;;;8.73;4.60;;;;;;;10.89;97.25;99857.38;5109451;27;20042;-47
2022/10/06 05:59:42;;;;;;;11.93;6.20;;;;;;;10.81;98.10;99860.41;5021947;28;20045;-48
2022/10/06 06:02:27;;;;;;;7.00;4.93;;;;;;;10.77;98.86;99866.72;5041600;28;20113;-49
2022/10/06 06:05:11;;;;;;;11.95;5.82;;;;;;;10.77;99.25;99873.75;5043847;28;20150;-47
2022/10/06 06:07:56;;;;;;;8.80;5.65;;;;;;;10.76;98.92;99882.53;5049858;28;20048;-49
2022/10/06 06:10:41;;;;;;;17.83;8.80;;;;;;;11.03;97.76;99877.63;5038171;28;20837;-49
2022/10/06 06:13:26;;;;;;;14.25;7.55;;;;;;;11.11;96.46;99882.50;5041867;28;20136;-52
2022/10/06 06:16:18;;;;;;;8.10;4.60;;;;;;;10.82;98.00;99892.72;5062502;28;20053;-51
2022/10/06 06:19:04;;;;;;;8.23;5.10;;;;;;;10.80;98.66;99903.28;5063955;28;20462;-48
2022/10/06 06:21:49;;;;;;;8.57;4.50;;;;;;;11.15;100.00;99902.38;5052623;28;20045;-48
2022/10/06 06:24:33;;;;;;;9.02;5.00;;;;;;;10.90;99.77;99906.25;5041174;28;20097;-47
2022/10/06 06:27:19;;;;;;;8.35;4.95;;;;;;;10.77;99.19;99906.03;5031631;28;20040;-46
2022/10/06 06:30:05;;;;;;;9.15;4.68;;;;;;;10.82;98.80;99911.06;5042353;28;20090;-48
2022/10/06 06:32:50;;;;;;;9.80;5.05;;;;;;;10.82;98.16;99919.75;5060186;28;20524;-53
2022/10/06 06:35:35;;;;;;;8.98;4.50;;;;;;;10.79;98.54;99924.31;5062131;28;20036;-54
2022/10/06 06:38:19;;;;;;;7.38;4.93;;;;;;;10.94;98.12;99926.16;5103480;27;20138;-54
2022/10/06 06:41:19;;;;;;;10.25;5.28;;;;;;;11.20;96.82;99921.34;5113551;27;20058;-46
2022/10/06 06:44:05;;;;;;;8.40;4.53;;;;;;;11.46;95.78;99932.22;5107499;27;20135;-46
2022/10/06 06:46:55;;;;;;;9.45;4.50;;;;;;;12.02;93.64;99930.09;5106877;27;20442;-50
2022/10/06 06:49:41;;;;;;;8.93;5.28;;;;;;;13.05;87.65;99932.13;5102493;28;20126;-49
2022/10/06 06:52:26;;;;;;;10.02;4.88;;;;;;;13.53;84.58;99937.13;5105065;27;20086;-52
2022/10/06 06:55:11;;;;;;;8.80;5.07;;;;;;;13.65;83.41;99935.50;5124706;27;20474;-47
2022/10/06 06:57:56;;;;;;;6.88;4.65;;;;;;;13.51;82.97;99944.25;5099999;27;20543;-49
2022/10/06 07:00:41;;;;;;;6.97;4.35;;;;;;;13.19;84.75;99949.69;5094440;27;20454;-52
2022/10/06 07:03:28;;;;;;;8.45;4.65;;;;;;;13.11;85.23;99944.91;5132366;27;20038;-47
2022/10/06 07:06:17;;;;;;;11.27;5.00;;;;;;;12.86;86.70;99951.63;5113924;27;20032;-53
2022/10/06 07:09:04;;;;;;;13.77;5.65;;;;;;;12.96;86.36;99954.56;5064473;28;20486;-46
2022/10/06 07:11:49;;;;;;;10.57;5.10;;;;;;;13.10;85.11;99961.63;5082205;27;20075;-49
2022/10/06 07:25:05;;;;;;;7.93;4.65;;;;;;;13.52;83.61;99955.66;5111826;27;20096;-50
2022/10/06 07:26:54;;;;;;;9.60;5.20;;;;;;;16.30;70.78;99971.50;5114836;27;20036;-53
2022/10/06 07:29:39;;;;;;;7.53;3.92;;;;;;;16.71;70.55;99969.34;5100369;27;20416;-49
2022/10/06 07:32:26;;;;;;;9.55;4.53;;;;;;;16.95;69.02;99986.97;5103129;28;20497;-56
2022/10/06 07:35:11;;;;;;;6.82;4.60;;;;;;;17.59;65.90;99978.63;5111111;27;20039;-52
2022/10/06 07:38:01;;;;;;;7.43;4.20;;;;;;;16.97;67.84;99984.22;5106025;27;20563;-49
2022/10/06 07:40:52;;;;;;;8.20;4.95;;;;;;;17.17;66.25;99980.03;5109572;27;20379;-50
2022/10/06 07:43:37;;;;;;;9.45;4.38;;;;;;;17.43;66.34;99976.34;5105102;27;20467;-51
2022/10/06 07:46:22;;;;;;;7.03;4.25;;;;;;;17.84;63.77;99972.22;5105050;27;20040;-52
2022/10/06 07:49:16;;;;;;;10.88;3.95;;;;;;;18.33;64.79;99979.81;5102885;28;20114;-53
2022/10/06 07:52:01;;;;;;;8.75;4.40;;;;;;;18.53;61.54;99981.78;5087508;27;20572;-49
2022/10/06 07:54:48;;;;;;;8.63;4.00;;;;;;;18.75;60.79;99975.56;5103901;27;20139;-50
2022/10/06 07:57:57;;;;;;;16.52;7.90;;;;;;;19.33;60.41;99978.69;5099847;27;20570;-51
2022/10/06 08:00:43;;;;;;;7.75;4.05;;;;;;;19.18;59.64;99981.69;5101829;27;21116;-54
2022/10/06 08:03:27;;;;;;;6.72;3.58;;;;;;;19.72;60.10;99993.94;5098806;27;20032;-55
2022/10/06 08:06:14;;;;;;;5.97;3.47;;;;;;;20.12;58.05;99986.09;5114683;27;20390;-54
2022/10/06 08:08:58;;;;;;;5.75;3.25;;;;;;;21.71;56.00;99990.16;5118587;27;20043;-58
2022/10/06 08:11:43;;;;;;;8.00;3.38;;;;;;;22.64;49.19;99992.78;5112275;27;20565;-55
2022/10/06 08:14:28;;;;;;;7.97;3.75;;;;;;;21.82;51.35;99985.66;5093550;28;20059;-54
2022/10/06 08:17:13;;;;;;;6.78;3.42;;;;;;;20.89;53.69;99998.69;5070462;28;20109;-54
2022/10/06 08:19:58;;;;;;;5.97;3.38;;;;;;;20.70;54.97;100007.53;5085051;28;20048;-54
2022/10/06 08:22:46;;;;;;;5.07;3.30;;;;;;;21.93;51.47;99992.59;5096835;28;20071;-56
2022/10/06 08:25:31;;;;;;;6.85;3.50;;;;;;;21.63;52.33;100017.56;5071434;28;20044;-54
2022/10/06 08:28:15;;;;;;;6.85;3.28;;;;;;;22.01;50.78;100003.38;5074651;28;20219;-53
2022/10/06 08:31:10;;;;;;;6.80;2.85;;;;;;;22.80;49.58;100013.44;5096274;28;20099;-53
2022/10/06 08:33:56;;;;;;;5.28;3.00;;;;;;;23.25;48.73;100002.72;5082240;28;20046;-54
2022/10/06 08:36:42;;;;;;;5.53;3.05;;;;;;;21.84;51.03;100007.66;5089107;28;21480;-56
2022/10/06 08:39:27;;;;;;;8.15;3.10;;;;;;;21.63;51.85;100017.56;5079861;28;20036;-54
2022/10/06 08:42:15;;;;;;;7.63;3.20;;;;;;;23.26;48.58;100018.59;5059014;28;20406;-53
2022/10/06 08:45:10;;;;;;;5.47;3.05;;;;;;;23.85;45.79;100008.19;5074986;28;20591;-54
2022/10/06 08:48:14;;;;;;;7.30;3.30;;;;;;;22.59;49.31;100003.91;5088721;28;20044;-54
2022/10/06 08:51:20;;;;;;;9.40;3.65;;;;;;;21.94;51.21;100013.78;5089283;27;20078;-54
2022/10/06 08:54:15;;;;;;;93.30;19.98;;;;;;;22.79;49.67;100006.44;5101895;28;20363;-53
2022/10/06 08:57:12;;;;;;;16.05;4.57;;;;;;;23.01;49.19;99998.91;5106938;27;20035;-57
2022/10/06 08:59:57;;;;;;;8.50;3.10;;;;;;;23.07;48.25;100003.63;5099021;28;20095;-56
2022/10/06 09:02:46;;;;;;;4.47;2.60;;;;;;;23.85;47.05;100009.03;5106688;27;20225;-51
2022/10/06 09:05:33;;;;;;;12.02;4.07;;;;;;;23.04;47.71;100006.63;5121266;27;20042;-54
2022/10/06 09:08:33;;;;;;;5.60;2.83;;;;;;;24.33;46.28;100011.19;5113617;27;20592;-52
2022/10/06 09:11:33;;;;;;;6.75;3.53;;;;;;;24.32;46.08;100003.31;5109178;28;20038;-50
2022/10/06 09:14:35;;;;;;;4.90;2.25;;;;;;;25.00;44.61;100008.53;5095752;28;20068;-52
2022/10/06 09:17:32;;;;;;;4.93;2.78;;;;;;;24.37;46.43;100006.31;5114662;28;20044;-52
2022/10/06 09:20:26;;;;;;;4.30;2.33;;;;;;;24.80;45.76;100011.53;5114738;27;20043;-48
2022/10/06 09:23:15;;;;;;;3.80;2.30;;;;;;;25.25;44.44;100013.00;5098911;27;20043;-49
2022/10/06 09:26:00;;;;;;;6.55;2.88;;;;;;;23.97;47.88;100011.41;5119454;27;20095;-50
2022/10/06 09:28:45;;;;;;;2.97;1.77;;;;;;;25.62;43.92;100014.25;5116437;27;20043;-48
2022/10/06 09:31:36;;;;;;;4.68;1.98;;;;;;;25.39;43.60;100022.16;5116620;27;20096;-50
2022/10/06 09:34:36;;;;;;;2.97;1.88;;;;;;;26.37;42.21;100013.00;5115162;27;20474;-52
2022/10/06 09:37:22;;;;;;;3.00;1.80;;;;;;;26.35;41.15;100017.72;5115832;27;20061;-51
2022/10/06 09:40:47;;;;;;;3.72;1.85;;;;;;;26.64;40.13;100016.16;5110853;28;20053;-50
2022/10/06 09:43:32;;;;;;;5.65;2.25;;;;;;;27.14;38.77;100004.97;5116573;27;20039;-47
2022/10/06 09:46:30;;;;;;;3.20;1.83;;;;;;;26.40;41.49;100016.19;5104238;28;20453;-55
2022/10/06 09:49:22;;;;;;;3.83;1.85;;;;;;;26.57;39.62;100008.81;5106134;27;20107;-52
2022/10/06 09:52:15;;;;;;;5.10;1.58;;;;;;;25.19;43.09;100026.06;5118490;27;20046;-50
2022/10/06 09:55:11;;;;;;;7.45;1.95;;;;;;;26.07;42.60;100019.03;5104322;27;20139;-53
2022/10/06 09:57:56;;;;;;;3.17;1.67;;;;;;;26.49;41.11;100021.50;5098833;27;20051;-56
2022/10/06 10:00:52;;;;;;;3.50;1.63;;;;;;;26.72;41.59;100018.78;5117219;27;20038;-51
2022/10/06 10:03:52;;;;;;;3.58;1.63;;;;;;;28.32;38.50;100015.94;5103788;28;20475;-51
2022/10/06 10:06:37;;;;;;;3.70;1.92;;;;;;;27.10;40.73;100019.78;5103048;27;20127;-50
2022/10/06 10:09:28;;;;;;;4.65;1.80;;;;;;;27.23;39.54;100014.63;5125114;27;20477;-53
2022/10/06 10:12:26;;;;;;;4.13;1.50;;;;;;;27.53;40.27;100016.47;5105662;27;20039;-51
2022/10/06 10:15:10;;;;;;;4.68;1.45;;;;;;;27.94;39.16;100025.91;5113653;27;20092;-51
2022/10/06 10:18:10;;;;;;;2.10;1.40;;;;;;;27.29;40.31;100018.41;5113419;27;20096;-48
2022/10/06 10:21:03;;;;;;;3.90;1.80;;;;;;;26.81;40.84;100028.44;5105451;27;20180;-48
2022/10/06 10:23:55;;;;;;;1.90;1.20;;;;;;;27.86;39.85;100021.44;5100545;27;20121;-53
2022/10/06 10:27:24;;;;;;;3.67;1.75;;;;;;;28.71;37.96;100033.50;5111607;27;20035;-49
2022/10/06 10:30:13;;;;;;;3.38;1.50;;;;;;;28.77;37.31;100027.31;5121241;27;20081;-51
2022/10/06 10:33:10;;;;;;;2.88;1.45;;;;;;;29.19;37.28;100025.78;5096022;27;20420;-50
2022/10/06 10:35:57;;;;;;;1.17;1.08;;;;;;;29.53;36.95;100029.50;5114910;27;20035;-52
2022/10/06 10:38:45;;;;;;;3.67;1.55;;;;;;;29.59;35.53;100023.34;5098684;28;20044;-50
2022/10/06 10:41:41;;;;;;;3.17;1.33;;;;;;;29.27;36.49;100025.63;5102042;27;20063;-52
2022/10/06 10:44:36;;;;;;;3.33;1.30;;;;;;;29.68;35.83;100025.88;5115494;27;20048;-53
2022/10/06 10:47:31;;;;;;;4.45;1.98;;;;;;;28.95;37.22;100028.72;5109944;28;20059;-54
2022/10/06 10:50:23;;;;;;;5.65;2.03;;;;;;;29.17;37.28;100034.06;5114619;27;20039;-50
2022/10/06 10:53:16;;;;;;;3.83;1.48;;;;;;;28.28;38.62;100035.16;5113290;27;20039;-45
2022/10/06 10:56:02;;;;;;;3.55;1.77;;;;;;;29.77;36.32;100038.13;5098811;28;20036;-51
2022/10/06 10:58:51;;;;;;;4.25;1.50;;;;;;;29.35;36.46;100038.13;5102707;27;20117;-53
2022/10/06 11:02:09;;;;;;;3.80;1.80;;;;;;;26.24;41.29;100035.06;5084116;28;20044;-54
2022/10/06 11:05:01;;;;;;;3.25;1.38;;;;;;;27.46;40.17;100042.44;5097820;27;20032;-52
2022/10/06 11:08:12;;;;;;;6.97;2.60;;;;;;;27.15;40.44;100030.84;5104804;27;20177;-50
2022/10/06 11:10:59;;;;;;;2.15;1.40;;;;;;;28.03;39.07;100030.16;5104267;27;20134;-52
2022/10/06 11:13:51;;;;;;;4.22;1.50;;;;;;;27.98;38.77;100034.41;5121776;27;20390;-49
2022/10/06 11:17:00;;;;;;;4.25;1.52;;;;;;;27.44;40.06;100031.88;5099116;28;20092;-52
2022/10/06 11:19:58;;;;;;;2.38;1.42;;;;;;;25.81;42.84;100042.50;5107105;28;20043;-51
2022/10/06 11:22:55;;;;;;;2.25;1.45;;;;;;;26.58;42.08;100025.78;5127228;27;20047;-49
2022/10/06 11:25:45;;;;;;;2.05;1.30;;;;;;;26.95;41.43;100028.66;5111592;28;20123;-48
2022/10/06 11:28:59;;;;;;;2.80;1.13;;;;;;;27.81;40.23;100031.13;5103691;27;20060;-49
2022/10/06 11:32:02;;;;;;;5.72;1.30;;;;;;;28.26;39.33;100026.44;5098469;28;20031;-48
2022/10/06 11:34:51;;;;;;;2.22;1.40;;;;;;;27.26;40.96;100025.00;5102248;27;20442;-50
2022/10/06 11:37:46;;;;;;;3.85;1.08;;;;;;;27.94;40.19;100022.38;5104751;27;20043;-48
2022/10/06 11:40:34;;;;;;;2.88;1.42;;;;;;;27.38;40.23;100017.31;5092362;27;20028;-53
2022/10/06 11:43:32;;;;;;;2.10;1.25;;;;;;;27.29;40.56;100013.03;5102270;28;20039;-50
2022/10/06 11:46:44;;;;;;;2.92;1.58;;;;;;;27.65;40.48;100014.97;5108942;27;20509;-51
2022/10/06 11:49:28;;;;;;;2.60;1.20;;;;;;;28.12;39.83;100012.00;5092450;28;20063;-52
2022/10/06 11:52:16;;;;;;;2.75;1.77;;;;;;;27.64;40.32;100010.63;5109526;27;20083;-52
2022/10/06 11:55:20;;;;;;;6.43;1.70;;;;;;;27.38;40.74;100009.25;5102723;27;20040;-53
2022/10/06 11:58:09;;;;;;;2.45;1.33;;;;;;;26.71;42.01;100005.53;5096871;27;20048;-51
2022/10/06 12:00:54;;;;;;;3.85;1.50;;;;;;;25.61;44.26;100006.34;5110334;27;20063;-57
2022/10/06 12:04:07;;;;;;;3.42;1.42;;;;;;;25.90;44.58;100003.03;5106949;27;20135;-55
2022/10/06 12:06:56;;;;;;;4.93;1.27;;;;;;;26.84;43.04;99996.84;5111577;27;20032;-54
2022/10/06 12:09:44;;;;;;;2.25;1.33;;;;;;;25.09;45.81;99996.78;5108567;27;20123;-50
2022/10/06 12:12:29;;;;;;;3.13;1.50;;;;;;;25.41;46.18;99994.16;5106822;27;20189;-57
2022/10/06 12:15:23;;;;;;;2.42;1.30;;;;;;;25.90;45.39;100008.41;5094251;27;20114;-50
2022/10/06 12:18:36;;;;;;;2.28;1.25;;;;;;;26.07;44.85;100006.47;5096651;27;20036;-54
2022/10/06 12:21:32;;;;;;;3.38;1.35;;;;;;;26.68;42.73;99999.50;5102438;27;20047;-53
2022/10/06 12:24:26;;;;;;;3.22;1.17;;;;;;;26.53;43.61;99999.47;5099773;27;20055;-52
2022/10/06 12:27:27;;;;;;;1.70;1.23;;;;;;;26.10;44.65;99989.16;5104393;27;20131;-51
2022/10/06 12:30:27;;;;;;;2.72;1.27;;;;;;;25.83;45.73;100000.25;5117821;27;20036;-52
2022/10/06 12:33:16;;;;;;;;;;;;;;;25.87;45.73;99992.66;5100775;27;20078;-56
2022/10/06 12:36:04;;;;;;;2.03;1.55;;;;;;;25.17;47.00;99995.06;5106139;28;19920;-57
2022/10/06 12:39:03;;;;;;;2.20;1.35;;;;;;;25.04;47.76;99998.28;5095576;27;20440;-53
2022/10/06 12:42:00;;;;;;;4.30;1.05;;;;;;;25.26;47.10;99995.91;5099271;28;20143;-56
2022/10/06 12:44:48;;;;;;;5.00;1.38;;;;;;;25.50;46.25;99997.66;5096918;27;20450;-54
2022/10/06 12:47:42;;;;;;;4.50;1.80;;;;;;;25.58;46.97;99986.91;5109711;27;20046;-58
2022/10/06 12:50:28;;;;;;;2.20;1.50;;;;;;;25.66;45.90;99990.56;5107337;27;20500;-58
2022/10/06 12:53:23;;;;;;;2.28;1.33;;;;;;;25.20;46.85;99984.84;5108190;27;20163;-52
2022/10/06 12:56:28;;;;;;;1.90;1.20;;;;;;;24.97;47.48;99985.56;5112750;27;20107;-54
2022/10/06 12:59:27;;;;;;;4.45;1.50;;;;;;;26.14;45.33;99981.59;5108297;27;20136;-53
2022/10/06 13:02:19;;;;;;;4.18;1.30;;;;;;;26.74;44.19;99979.13;5114127;27;20079;-52
2022/10/06 13:05:11;;;;;;;3.17;1.02;;;;;;;27.08;43.35;99976.97;5108773;27;20039;-55
2022/10/06 13:08:05;;;;;;;3.00;1.20;;;;;;;27.08;44.02;99978.84;5116050;27;20385;-47
2022/10/06 13:10:49;;;;;;;4.20;1.30;;;;;;;27.69;41.12;99983.16;5103604;28;20044;-51
2022/10/06 13:13:34;;;;;;;3.40;1.13;;;;;;;27.87;41.87;99969.31;5101726;27;20465;-51
2022/10/06 13:16:35;;;;;;;5.35;1.50;;;;;;;26.93;42.52;99971.53;5108545;28;20377;-49
2022/10/06 13:19:27;;;;;;;3.05;1.05;;;;;;;26.76;43.21;99973.56;5101784;28;20087;-55
2022/10/06 13:22:13;;;;;;;3.47;0.88;;;;;;;26.18;44.07;99974.84;5114153;28;20479;-53